tititudorancea.com
Station Historical Data
Daily Summary for July 11, 2018 Units:  Metric    English   Both
« Previous Day
Next Day »
Daily Weekly Monthly Yearly Custom
  High: Low: Average:
Temperature: -17.8 °C 2.3 °C 4.8 °C
Dew Point: -17.8 °C 1.4 °C 3.3 °C
Humidity: Humidity % 80 % 90 %
Wind Speed: 0 km/h 0 km/h 8.4 km/h
Wind Gust: 0 km/h - -
Wind:- - ESE
Pressure: 0 hPa 1019.2 hPa -
Precipitation: 7.11 mm    
Historical Graphs
 
 
Ararat weather Find more about Weather in Ararat, AU


 



 


Tabular Data for July 11, 2018
Time Temperature Dew Point Pressure Wind Wind Speed Wind Gust Humidity Rainfall Rate (Hourly)
-17.8 °C -17.8 °C 0 hPa Calm     Humidity % 0 mm
00:04 6.9 °C 3.7 °C 1023.2 hPa North 9.3 km/h 6.1 km/h 80 % 0 mm
00:09 6.7 °C 3.7 °C 1023.2 hPa NNW 13 km/h 5.6 km/h 81 % 0 mm
00:14 6.6 °C 3.6 °C 1023.2 hPa NNW 9.7 km/h 4.5 km/h 81 % 0 mm
00:19 6.5 °C 3.5 °C 1023.2 hPa NNW 11.1 km/h 3.2 km/h 81 % 0 mm
00:24 6.4 °C 3.4 °C 1023.2 hPa North 5.6 km/h 4.5 km/h 81 % 0 mm
00:29 6.3 °C 3.3 °C 1022.9 hPa NNW 9.3 km/h 1.4 km/h 81 % 0 mm
00:34 6.2 °C 3.3 °C 1022.9 hPa NNW 5.6 km/h 3.4 km/h 82 % 0 mm
00:39 6.1 °C 3.2 °C 1022.9 hPa NNW 3.2 km/h 1.3 km/h 82 % 0 mm
00:44 5.9 °C 3.1 °C 1022.9 hPa North 1.9 km/h 0.8 km/h 82 % 0 mm
00:49 5.9 °C 3.1 °C 1022.9 hPa NNW 5.6 km/h 1.3 km/h 82 % 0 mm
00:54 5.8 °C 3.1 °C 1022.9 hPa NNW 7.4 km/h 4.2 km/h 83 % 0 mm
00:59 5.7 °C 3 °C 1022.9 hPa North 5.6 km/h 3.1 km/h 83 % 0 mm
01:04 5.6 °C 3.1 °C 1022.9 hPa NNW 7.4 km/h 4.8 km/h 84 % 0 mm
01:09 5.6 °C 3.1 °C 1022.6 hPa NNW 7.4 km/h 3.4 km/h 84 % 0 mm
01:14 5.5 °C 3 °C 1022.6 hPa North 9.7 km/h 7.7 km/h 84 % 0 mm
01:19 5.6 °C 3.1 °C 1022.6 hPa NNW 13 km/h 5.3 km/h 84 % 0 mm
01:24 5.6 °C 3.1 °C 1022.6 hPa NNW 11.1 km/h 7.7 km/h 84 % 0 mm
01:29 5.6 °C 2.9 °C 1022.6 hPa NNW 9.3 km/h 8.4 km/h 83 % 0 mm
01:34 5.5 °C 2.8 °C 1022.2 hPa NNW 13 km/h 5.5 km/h 83 % 0 mm
01:39 5.4 °C 2.7 °C 1022.2 hPa NNW 11.1 km/h 7.2 km/h 83 % 0 mm
01:44 5.4 °C 2.7 °C 1022.2 hPa NNW 13 km/h 8 km/h 83 % 0 mm
01:49 5.4 °C 2.7 °C 1022.2 hPa North 13 km/h 7.4 km/h 83 % 0 mm
01:54 5.4 °C 2.7 °C 1022.2 hPa NNW 9.3 km/h 3.1 km/h 83 % 0 mm
01:59 5.3 °C 2.7 °C 1022.2 hPa NNW 9.3 km/h 5.5 km/h 83 % 0 mm
02:04 5.3 °C 2.6 °C 1022.2 hPa NNW 11.1 km/h 6.3 km/h 83 % 0 mm
02:09 5.2 °C 2.6 °C 1022.2 hPa NNW 9.3 km/h 7.7 km/h 83 % 0 mm
02:14 5.1 °C 2.4 °C 1022.2 hPa NNW 11.1 km/h 6.1 km/h 83 % 0 mm
02:19 5.1 °C 2.6 °C 1022.2 hPa NNW 9.3 km/h 7.9 km/h 84 % 0 mm
02:24 5.1 °C 2.6 °C 1021.9 hPa NNW 11.1 km/h 7.7 km/h 84 % 0 mm
02:29 5.1 °C 2.6 °C 1021.9 hPa NNW 9.3 km/h 7.6 km/h 84 % 0 mm
02:34 5.1 °C 2.6 °C 1021.9 hPa North 11.1 km/h 7.1 km/h 84 % 0 mm
02:39 5.2 °C 2.7 °C 1021.9 hPa NNW 5.6 km/h 4.7 km/h 84 % 0 mm
02:44 5.2 °C 2.7 °C 1021.9 hPa NNW 5.6 km/h 3.1 km/h 84 % 0 mm
02:49 5.3 °C 2.8 °C 1021.9 hPa NNW 3.7 km/h 1 km/h 84 % 0 mm
02:54 5.3 °C 2.6 °C 1021.9 hPa NNW 7.4 km/h 5.1 km/h 83 % 0 mm
02:59 5.3 °C 2.7 °C 1021.9 hPa NNW 5.6 km/h 4.2 km/h 83 % 0 mm
03:04 5.3 °C 2.8 °C 1021.9 hPa North 7.4 km/h 4.8 km/h 84 % 0 mm
03:09 5.4 °C 2.9 °C 1021.9 hPa NNW 5.6 km/h 2.4 km/h 84 % 0 mm
03:14 5.4 °C 2.8 °C 1021.9 hPa NNW 5.6 km/h 2.6 km/h 83 % 0 mm
03:19 5.4 °C 2.8 °C 1021.6 hPa NNW 9.3 km/h 5.1 km/h 83 % 0 mm
03:24 5.4 °C 2.8 °C 1021.6 hPa NNW 7.4 km/h 6 km/h 83 % 0 mm
03:29 5.4 °C 2.8 °C 1021.6 hPa NNW 11.1 km/h 6.3 km/h 83 % 0 mm
03:34 5.3 °C 2.7 °C 1021.2 hPa North 9.3 km/h 6.6 km/h 83 % 0 mm
03:39 5.3 °C 2.8 °C 1021.2 hPa NNW 9.3 km/h 5.3 km/h 84 % 0 mm
03:44 5.2 °C 2.7 °C 1021.2 hPa NNW 11.1 km/h 7.9 km/h 84 % 0 mm
03:49 5.2 °C 2.7 °C 1021.2 hPa NNW 16.7 km/h 6 km/h 84 % 0 mm
03:54 5.1 °C 2.6 °C 1021.2 hPa North 13 km/h 6.8 km/h 84 % 0 mm
03:59 5.1 °C 2.6 °C 1020.9 hPa North 13 km/h 6.9 km/h 84 % 0 mm
04:04 5.1 °C 2.7 °C 1020.9 hPa North 13 km/h 7.2 km/h 85 % 0 mm
04:09 5 °C 2.7 °C 1020.5 hPa North 13 km/h 9.7 km/h 85 % 0 mm
04:14 5 °C 2.7 °C 1020.5 hPa North 11.1 km/h 5.1 km/h 85 % 0 mm
04:19 4.9 °C 2.6 °C 1020.5 hPa North 7.4 km/h 4.2 km/h 85 % 0 mm
04:24 4.9 °C 2.6 °C 1020.9 hPa North 5.6 km/h 1.9 km/h 85 % 0 mm
04:29 4.9 °C 2.7 °C 1020.9 hPa North 5.6 km/h 5.1 km/h 86 % 0 mm
04:34 5.1 °C 2.9 °C 1020.9 hPa North 9.7 km/h 9.8 km/h 86 % 0 mm
04:39 5.1 °C 2.9 °C 1020.9 hPa North 9.3 km/h 5.1 km/h 86 % 0 mm
04:44 5.2 °C 3.1 °C 1020.9 hPa North 9.7 km/h 5 km/h 86 % 0 mm
04:49 5.3 °C 3.1 °C 1020.9 hPa North 13 km/h 9 km/h 86 % 0 mm
04:54 5.3 °C 3.2 °C 1020.5 hPa North 16.7 km/h 11.7 km/h 86 % 0 mm
04:59 5.4 °C 3.2 °C 1020.5 hPa North 14.8 km/h 10.8 km/h 86 % 0 mm
05:04 5.4 °C 3.3 °C 1020.2 hPa North 13 km/h 8.2 km/h 86 % 0 mm
05:09 5.4 °C 3.3 °C 1020.2 hPa North 7.4 km/h 4.7 km/h 86 % 0 mm
05:14 5.4 °C 3.4 °C 1020.2 hPa North 9.3 km/h 6.4 km/h 87 % 0 mm
05:19 5.4 °C 3.4 °C 1020.5 hPa North 14.8 km/h 9 km/h 87 % 0 mm
05:24 5.3 °C 3.3 °C 1020.5 hPa North 9.3 km/h 6.8 km/h 87 % 0 mm
05:29 5.3 °C 3.3 °C 1020.5 hPa North 16.7 km/h 8.9 km/h 87 % 0 mm
05:34 5.3 °C 3.3 °C 1020.5 hPa North 11.1 km/h 8.9 km/h 87 % 0 mm
05:39 5.3 °C 3.4 °C 1020.2 hPa North 11.1 km/h 4 km/h 88 % 0 mm
05:44 5.3 °C 3.5 °C 1020.2 hPa North 11.1 km/h 4.2 km/h 88 % 0 mm
05:49 5.4 °C 3.6 °C 1020.2 hPa North 18.5 km/h 9.3 km/h 88 % 0 mm
05:54 5.4 °C 3.6 °C 1020.5 hPa North 14.8 km/h 10.6 km/h 88 % 0 mm
05:59 5.4 °C 3.6 °C 1020.2 hPa North 18.5 km/h 9.7 km/h 88 % 0 mm
06:04 5.4 °C 3.6 °C 1020.2 hPa North 11.3 km/h 11.4 km/h 88 % 0 mm
06:09 5.4 °C 3.6 °C 1020.2 hPa North 11.1 km/h 7.7 km/h 88 % 0 mm
06:14 5.4 °C 3.6 °C 1020.5 hPa North 13 km/h 9 km/h 88 % 0 mm
06:19 5.4 °C 3.6 °C 1020.5 hPa North 16.7 km/h 8.9 km/h 88 % 0 mm
06:24 5.4 °C 3.8 °C 1020.5 hPa North 14.8 km/h 5.1 km/h 89 % 0 mm
06:29 5.4 °C 3.7 °C 1020.5 hPa North 18.5 km/h 13 km/h 89 % 0 mm
06:34 5.4 °C 3.7 °C 1020.5 hPa North 18.5 km/h 11.4 km/h 89 % 0 mm
06:39 5.3 °C 3.6 °C 1020.5 hPa North 20.4 km/h 8.9 km/h 89 % 0 mm
06:44 5.2 °C 3.7 °C 1020.5 hPa North 14.8 km/h 9.8 km/h 90 % 0 mm
06:49 5.1 °C 3.6 °C 1020.5 hPa North 16.7 km/h 13.5 km/h 90 % 0 mm
06:54 5.1 °C 3.7 °C 1020.5 hPa North 14.8 km/h 10.3 km/h 91 % 0 mm
06:59 5 °C 3.7 °C 1020.5 hPa North 14.5 km/h 8.7 km/h 91 % 0.25 mm
07:04 4.9 °C 3.6 °C 1020.5 hPa North 14.8 km/h 10.3 km/h 91 % 0.51 mm
07:09 4.9 °C 3.6 °C 1020.5 hPa North 13 km/h 6.8 km/h 91 % 0.51 mm
07:14 4.9 °C 3.7 °C 1020.5 hPa North 11.3 km/h 7.4 km/h 92 % 0.76 mm
07:19 4.9 °C 3.7 °C 1020.5 hPa North 5.6 km/h 5.3 km/h 92 % 1.02 mm
07:24 4.8 °C 3.7 °C 1020.9 hPa North 11.1 km/h 7.9 km/h 92 % 1.27 mm
07:29 4.8 °C 3.6 °C 1020.9 hPa North 14.8 km/h 5.3 km/h 92 % 1.52 mm
07:34 4.8 °C 3.6 °C 1020.9 hPa North 11.3 km/h 8.7 km/h 92 % 1.78 mm
07:39 4.7 °C 3.7 °C 1020.9 hPa North 14.8 km/h 9.2 km/h 93 % 2.29 mm
07:44 4.7 °C 3.6 °C 1020.9 hPa North 18.5 km/h 9.8 km/h 93 % 2.29 mm
07:49 4.7 °C 3.6 °C 1020.9 hPa North 13 km/h 5.6 km/h 93 % 2.54 mm
07:54 4.6 °C 3.6 °C 1021.2 hPa North 13 km/h 7.2 km/h 93 % 3.05 mm
07:59 4.6 °C 3.6 °C 1020.9 hPa North 9.7 km/h 8.4 km/h 93 % 3.05 mm
08:04 4.6 °C 3.6 °C 1020.9 hPa North 9.3 km/h 5.3 km/h 93 % 3.05 mm
08:09 4.6 °C 3.5 °C 1020.9 hPa North 11.1 km/h 1.6 km/h 93 % 3.3 mm
08:14 4.6 °C 3.5 °C 1020.9 hPa North 7.4 km/h 4.5 km/h 93 % 3.05 mm
08:19 4.6 °C 3.7 °C 1020.9 hPa North 9.3 km/h 6.6 km/h 94 % 3.05 mm
08:24 4.6 °C 3.7 °C 1020.9 hPa North 13 km/h 8.7 km/h 94 % 3.05 mm
08:29 4.5 °C 3.6 °C 1020.9 hPa North 9.3 km/h 9.2 km/h 94 % 2.79 mm
08:34 4.6 °C 3.7 °C 1020.9 hPa North 11.3 km/h 7.7 km/h 94 % 2.29 mm
08:39 4.6 °C 3.7 °C 1020.9 hPa North 14.8 km/h 4.8 km/h 94 % 2.29 mm
08:44 4.6 °C 3.7 °C 1020.9 hPa North 11.1 km/h 11.1 km/h 94 % 2.29 mm
08:49 4.6 °C 3.7 °C 1020.9 hPa North 11.3 km/h 8.9 km/h 94 % 2.03 mm
08:54 4.6 °C 3.7 °C 1020.9 hPa North 7.4 km/h 3.1 km/h 94 % 1.78 mm
08:59 4.6 °C 3.7 °C 1020.9 hPa North 14.8 km/h 10.6 km/h 94 % 1.78 mm
09:04 4.6 °C 3.7 °C 1020.9 hPa North 14.5 km/h 11.1 km/h 94 % 1.52 mm
09:09 4.6 °C 3.7 °C 1020.9 hPa North 16.7 km/h 7.2 km/h 94 % 1.52 mm
09:14 4.6 °C 3.7 °C 1020.9 hPa North 6.4 km/h 5.8 km/h 94 % 1.52 mm
09:19 4.6 °C 3.7 °C 1021.2 hPa North 6.4 km/h 4.2 km/h 94 % 1.52 mm
09:24 4.6 °C 3.7 °C 1021.2 hPa North 9.3 km/h 6.9 km/h 94 % 1.78 mm
09:29 4.5 °C 3.6 °C 1021.2 hPa North 11.1 km/h 6.1 km/h 94 % 1.78 mm
09:34 4.5 °C 3.6 °C 1021.2 hPa North 13 km/h 9.8 km/h 94 % 2.03 mm
09:39 4.5 °C 3.6 °C 1020.9 hPa North 9.7 km/h 10.1 km/h 94 % 1.78 mm
09:44 4.5 °C 3.6 °C 1020.9 hPa North 11.1 km/h 6.8 km/h 94 % 1.52 mm
09:49 4.5 °C 3.6 °C 1020.9 hPa North 13 km/h 8.7 km/h 94 % 1.52 mm
09:54 4.4 °C 3.6 °C 1020.9 hPa North 11.3 km/h 6.1 km/h 94 % 1.78 mm
09:59 4.4 °C 3.6 °C 1021.2 hPa North 13 km/h 9.7 km/h 94 % 1.52 mm
10:04 4.5 °C 3.6 °C 1021.2 hPa North 11.1 km/h 5.6 km/h 94 % 1.52 mm
10:09 4.5 °C 3.6 °C 1020.9 hPa North 9.7 km/h 7.1 km/h 94 % 1.52 mm
10:14 4.6 °C 3.7 °C 1020.9 hPa North 11.3 km/h 6.4 km/h 94 % 1.52 mm
10:19 4.6 °C 3.7 °C 1020.9 hPa North 4.8 km/h 1.9 km/h 94 % 1.02 mm
10:24 4.6 °C 3.7 °C 1020.9 hPa North 8 km/h 3.1 km/h 94 % 0.76 mm
10:29 4.6 °C 3.7 °C 1020.9 hPa North 11.1 km/h 5.5 km/h 94 % 0.51 mm
10:34 4.6 °C 3.7 °C 1020.9 hPa North 9.3 km/h 5 km/h 94 % 0.51 mm
10:39 4.7 °C 3.8 °C 1021.2 hPa North 8 km/h 4 km/h 94 % 0.51 mm
10:44 4.7 °C 3.8 °C 1021.2 hPa North 12.9 km/h 8.4 km/h 94 % 0.51 mm
10:49 4.7 °C 3.8 °C 1021.2 hPa North 9.3 km/h 6.1 km/h 94 % 0.51 mm
10:54 4.7 °C 3.8 °C 1021.2 hPa North 13 km/h 10.8 km/h 94 % 0.51 mm
10:59 4.7 °C 3.8 °C 1020.9 hPa North 7.4 km/h 4.3 km/h 94 % 0.51 mm
11:04 4.7 °C 3.8 °C 1020.9 hPa North 9.3 km/h 5.6 km/h 94 % 0.51 mm
11:09 4.7 °C 3.8 °C 1020.9 hPa North 9.3 km/h 9.2 km/h 94 % 0.51 mm
11:14 4.8 °C 3.9 °C 1020.9 hPa North 5.6 km/h 6.6 km/h 94 % 0.51 mm
11:19 4.8 °C 3.9 °C 1020.5 hPa North 9.3 km/h 6.3 km/h 94 % 0.51 mm
11:24 4.8 °C 3.9 °C 1020.5 hPa North 7.4 km/h 3.1 km/h 94 % 0.51 mm
11:29 4.8 °C 3.9 °C 1020.9 hPa NNE 13 km/h 8.2 km/h 94 % 0.51 mm
11:34 4.8 °C 3.9 °C 1020.9 hPa NNE 11.3 km/h 10.5 km/h 94 % 0.51 mm
11:39 4.8 °C 3.9 °C 1020.9 hPa NNE 14.8 km/h 11.4 km/h 94 % 0.51 mm
11:44 4.9 °C 4 °C 1020.5 hPa NNE 12.9 km/h 6.9 km/h 94 % 0.51 mm
11:49 4.9 °C 4 °C 1020.5 hPa NNE 11.1 km/h 6.3 km/h 94 % 0.51 mm
11:54 4.9 °C 4 °C 1020.5 hPa NNE 11.1 km/h 6.8 km/h 94 % 0.25 mm
11:59 4.9 °C 4 °C 1020.5 hPa NNE 11.1 km/h 7.4 km/h 94 % 0.25 mm
12:04 4.8 °C 3.9 °C 1020.5 hPa North 16.7 km/h 7.9 km/h 94 % 0.25 mm
12:09 4.8 °C 3.9 °C 1020.5 hPa North 7.4 km/h 5.8 km/h 94 % 0 mm
12:14 4.8 °C 3.9 °C 1020.5 hPa North 16.7 km/h 9.8 km/h 94 % 0 mm
12:19 4.8 °C 3.9 °C 1020.5 hPa North 11.3 km/h 6.1 km/h 94 % 0 mm
12:24 4.8 °C 3.9 °C 1020.2 hPa North 14.8 km/h 9.8 km/h 94 % 0 mm
12:29 4.8 °C 3.9 °C 1020.2 hPa North 14.8 km/h 9 km/h 94 % 0 mm
12:34 4.9 °C 4 °C 1020.5 hPa NNE 14.8 km/h 9 km/h 94 % 0 mm
12:39 4.9 °C 4 °C 1020.5 hPa NNE 18.5 km/h 8 km/h 94 % 0 mm
12:44 4.9 °C 4.1 °C 1020.2 hPa NNE 14.8 km/h 7.1 km/h 94 % 0 mm
12:46 4.9 °C 4.1 °C 1020.2 hPa NNE 13 km/h 10.5 km/h 94 % 0 mm
13:04 5 °C 4.1 °C 1020.2 hPa NNE 12.9 km/h 10.9 km/h 94 % 0 mm
13:09 5 °C 4.1 °C 1020.2 hPa NNE 9.3 km/h 6.9 km/h 94 % 0 mm
13:14 5.1 °C 4.2 °C 1020.2 hPa NNE 9.7 km/h 4.7 km/h 94 % 0 mm
13:19 5.2 °C 4.3 °C 1020.2 hPa NNE 11.1 km/h 10.8 km/h 94 % 0 mm
13:24 5.2 °C 4.3 °C 1020.2 hPa NNE 19.3 km/h 10.9 km/h 94 % 0 mm
13:29 5.3 °C 4.4 °C 1019.9 hPa NNE 11.1 km/h 4.7 km/h 94 % 0 mm
13:34 5.5 °C 4.4 °C 1019.9 hPa NNE 11.1 km/h 7.9 km/h 93 % 0 mm
13:39 5.4 °C 4.3 °C 1019.9 hPa NNE 12.9 km/h 10.9 km/h 93 % 0 mm
13:44 5.5 °C 4.4 °C 1019.9 hPa NNE 5.6 km/h 4.8 km/h 93 % 0 mm
13:49 5.5 °C 4.4 °C 1019.9 hPa North 16.1 km/h 8.2 km/h 93 % 0 mm
13:54 5.5 °C 4.4 °C 1019.9 hPa North 9.3 km/h 3.4 km/h 93 % 0 mm
13:59 5.5 °C 4.4 °C 1019.9 hPa North 17.7 km/h 10.3 km/h 93 % 0 mm
14:04 5.4 °C 4.4 °C 1019.9 hPa North 14.8 km/h 6.4 km/h 93 % 0 mm
14:09 5.5 °C 4.4 °C 1019.9 hPa North 11.1 km/h 7.1 km/h 93 % 0 mm
14:14 5.6 °C 4.5 °C 1019.9 hPa North 7.4 km/h 4 km/h 93 % 0 mm
14:19 5.6 °C 4.6 °C 1019.5 hPa North 11.3 km/h 9 km/h 93 % 0 mm
14:24 5.7 °C 4.7 °C 1019.5 hPa North 13 km/h 7.2 km/h 93 % 0 mm
14:29 5.8 °C 4.7 °C 1019.5 hPa North 6.4 km/h 9.8 km/h 93 % 0 mm
14:34 5.7 °C 4.5 °C 1019.5 hPa North 13 km/h 7.9 km/h 92 % 0 mm
14:39 5.8 °C 4.7 °C 1019.5 hPa North 9.3 km/h 3.9 km/h 93 % 0 mm
14:44 5.9 °C 4.7 °C 1019.5 hPa North 11.1 km/h 4 km/h 92 % 0 mm
14:49 5.9 °C 4.7 °C 1019.5 hPa North 11.1 km/h 3.4 km/h 92 % 0 mm
14:54 6.1 °C 4.8 °C 1019.5 hPa NNE 11.1 km/h 8 km/h 92 % 0 mm
14:59 6.1 °C 4.9 °C 1019.5 hPa North 7.4 km/h 6 km/h 92 % 0 mm
15:04 6.4 °C 5.3 °C 1019.5 hPa NNE 7.4 km/h 5.5 km/h 93 % 0 mm
15:09 6.6 °C 5.2 °C 1019.5 hPa North 9.3 km/h 4.5 km/h 91 % 0 mm
15:14 6.6 °C 5.2 °C 1019.5 hPa NNE 8 km/h 3.2 km/h 91 % 0 mm
15:19 6.6 °C 5.2 °C 1019.5 hPa North 9.7 km/h 7.6 km/h 91 % 0 mm
15:24 6.6 °C 5.1 °C 1019.5 hPa NNE 9.3 km/h 5.5 km/h 90 % 0 mm
15:29 6.7 °C 5.2 °C 1019.2 hPa NNE 5.6 km/h 3.1 km/h 90 % 0 mm
15:34 6.7 °C 5.2 °C 1019.2 hPa North 7.4 km/h 6.6 km/h 90 % 0 mm
15:39 6.8 °C 5.3 °C 1019.2 hPa North 7.4 km/h 1.3 km/h 90 % 0 mm
15:44 6.9 °C 5.3 °C 1019.5 hPa NNE 9.3 km/h 3.5 km/h 89 % 0 mm
15:49 6.9 °C 5.1 °C 1019.5 hPa NNE 7.4 km/h 0.6 km/h 88 % 0 mm
15:54 7 °C 5.3 °C 1019.5 hPa North 5.6 km/h 4.3 km/h 89 % 0 mm
15:59 6.9 °C 5.1 °C 1019.5 hPa North 7.4 km/h 4.5 km/h 88 % 0 mm
16:04 6.9 °C 5.1 °C 1019.5 hPa North 5.6 km/h 3.1 km/h 88 % 0 mm
16:09 6.8 °C 5 °C 1019.5 hPa NNE 5.6 km/h 1.4 km/h 88 % 0 mm
16:14 6.7 °C 4.8 °C 1019.5 hPa NNE 5.6 km/h 2.9 km/h 88 % 0 mm
16:19 6.6 °C 4.7 °C 1019.5 hPa North 7.4 km/h 3.2 km/h 88 % 0 mm
16:24 6.4 °C 4.8 °C 1019.9 hPa NNE 6.4 km/h 3.9 km/h 89 % 0 mm
16:29 6.4 °C 4.7 °C 1019.9 hPa NNE 8 km/h 5.1 km/h 89 % 0 mm
16:34 6.3 °C 4.6 °C 1019.9 hPa NNE 9.3 km/h 2.4 km/h 89 % 0 mm
16:39 6.2 °C 4.6 °C 1019.9 hPa North 9.3 km/h 5.1 km/h 89 % 0 mm
16:44 6.1 °C 4.4 °C 1019.9 hPa NNE 9.3 km/h 3.5 km/h 89 % 0 mm
16:49 6 °C 4.3 °C 1019.9 hPa North 1.9 km/h 0.3 km/h 89 % 0 mm
16:54 5.9 °C 4.4 °C 1019.9 hPa North 5.6 km/h 3.5 km/h 90 % 0 mm
16:59 5.9 °C 4.4 °C 1019.9 hPa NNE 5.6 km/h 3.9 km/h 90 % 0 mm
17:04 5.9 °C 4.4 °C 1019.9 hPa NNE 3.7 km/h 1.1 km/h 90 % 0 mm
17:09 5.8 °C 4.3 °C 1019.9 hPa NNE 5.6 km/h 2.3 km/h 90 % 0 mm
17:14 5.7 °C 4.2 °C 1019.9 hPa North 5.6 km/h 1.9 km/h 90 % 0 mm
17:19 5.6 °C 4.1 °C 1020.2 hPa North 5.6 km/h 1.9 km/h 90 % 0 mm
17:24 5.6 °C 4.1 °C 1020.2 hPa North 7.4 km/h 4.5 km/h 90 % 0 mm
17:29 5.4 °C 4.1 °C 1019.9 hPa North 5.6 km/h 2.4 km/h 91 % 0 mm
17:34 5.4 °C 4.1 °C 1020.2 hPa North 3.7 km/h 0.2 km/h 91 % 0 mm
17:39 5.3 °C 3.9 °C 1020.2 hPa North 1.9 km/h 0.3 km/h 91 % 0 mm
17:44 5.1 °C 3.8 °C 1020.2 hPa NNE 3.7 km/h 1.8 km/h 91 % 0 mm
17:49 5 °C 3.7 °C 1020.2 hPa NNE 1.9 km/h 0.8 km/h 91 % 0 mm
17:54 4.9 °C 3.6 °C 1020.2 hPa NNE 3.7 km/h 0.6 km/h 91 % 0 mm
17:59 4.8 °C 3.5 °C 1020.2 hPa NNE 1.9 km/h 0.5 km/h 91 % 0 mm
18:04 4.7 °C 3.4 °C 1020.2 hPa NNE 5.6 km/h 1.1 km/h 91 % 0 mm
18:09 4.7 °C 3.5 °C 1020.2 hPa North 1.9 km/h 0.3 km/h 92 % 0 mm
18:14 4.6 °C 3.4 °C 1020.2 hPa Calm     92 % 0 mm
18:19 4.4 °C 3.3 °C 1020.5 hPa Calm     92 % 0 mm
18:24 4.4 °C 3.2 °C 1020.5 hPa Calm     92 % 0 mm
18:29 4.3 °C 3.1 °C 1020.5 hPa NNE 1.9 km/h 0.2 km/h 92 % 0 mm
18:34 4.2 °C 3 °C 1020.5 hPa Calm     92 % 0 mm
18:39 4.1 °C 2.9 °C 1020.5 hPa Calm     92 % 0 mm
18:44 4 °C 2.8 °C 1020.5 hPa North 1.9 km/h   92 % 0 mm
18:49 3.9 °C 2.9 °C 1020.5 hPa NNE 3.7 km/h 0.2 km/h 93 % 0 mm
18:54 4 °C 2.9 °C 1020.5 hPa Calm     93 % 0 mm
18:59 3.9 °C 2.9 °C 1020.5 hPa North 1.9 km/h   93 % 0 mm
19:04 3.9 °C 2.8 °C 1020.5 hPa North 1.9 km/h 0.2 km/h 93 % 0 mm
19:09 3.8 °C 2.8 °C 1020.9 hPa Calm     93 % 0 mm
19:14 3.7 °C 2.6 °C 1020.9 hPa Calm     92 % 0 mm
19:19 3.6 °C 2.6 °C 1020.9 hPa Calm     93 % 0 mm
19:24 3.5 °C 2.5 °C 1020.9 hPa Calm     93 % 0 mm
19:29 3.5 °C 2.5 °C 1020.9 hPa Calm     93 % 0 mm
19:34 3.6 °C 2.7 °C 1020.9 hPa Calm     94 % 0 mm
19:39 3.6 °C 2.6 °C 1020.9 hPa Calm     93 % 0 mm
19:44 3.6 °C 2.6 °C 1020.9 hPa North 1.9 km/h 1 km/h 93 % 0 mm
19:49 3.6 °C 2.6 °C 1020.9 hPa North 5.6 km/h 2.9 km/h 93 % 0 mm
19:54 3.6 °C 2.7 °C 1020.9 hPa Calm   0.2 km/h 94 % 0 mm
19:59 3.5 °C 2.6 °C 1020.9 hPa North 4.8 km/h 2.9 km/h 94 % 0 mm
20:04 3.5 °C 2.6 °C 1020.9 hPa NNE 5.6 km/h 3.2 km/h 94 % 0 mm
20:09 3.6 °C 2.7 °C 1020.9 hPa NNE 3.7 km/h 0.8 km/h 94 % 0 mm
20:14 3.6 °C 2.7 °C 1020.9 hPa North 1.9 km/h 0.8 km/h 94 % 0 mm
20:19 3.7 °C 2.8 °C 1020.9 hPa North 1.9 km/h 1.4 km/h 94 % 0 mm
20:24 3.7 °C 2.8 °C 1020.9 hPa North 5.6 km/h 3.5 km/h 94 % 0 mm
20:29 3.7 °C 2.8 °C 1020.9 hPa North 5.6 km/h 1.3 km/h 94 % 0 mm
20:34 3.6 °C 2.7 °C 1021.2 hPa NNE 3.7 km/h 1.1 km/h 94 % 0 mm
20:39 3.6 °C 2.7 °C 1021.2 hPa North 5.6 km/h 3.4 km/h 94 % 0 mm
20:44 3.6 °C 2.7 °C 1020.9 hPa NNE 1.9 km/h 1.6 km/h 94 % 0 mm
20:49 3.6 °C 2.7 °C 1021.2 hPa North 5.6 km/h 3.1 km/h 94 % 0 mm
20:54 3.6 °C 2.7 °C 1021.2 hPa North 5.6 km/h 4.7 km/h 94 % 0 mm
20:59 3.7 °C 2.8 °C 1021.2 hPa NNE 7.4 km/h 4.5 km/h 94 % 0 mm
21:04 3.7 °C 2.8 °C 1021.2 hPa North 5.6 km/h 3.5 km/h 94 % 0 mm
21:09 3.7 °C 2.8 °C 1021.2 hPa North 5.6 km/h 2.9 km/h 94 % 0 mm
21:14 3.7 °C 2.8 °C 1021.2 hPa NNE 5.6 km/h 1.9 km/h 94 % 0 mm
21:19 3.8 °C 2.9 °C 1021.2 hPa NNE 5.6 km/h 3.1 km/h 94 % 0 mm
21:24 3.7 °C 2.8 °C 1021.2 hPa NNE 4.8 km/h 1.9 km/h 94 % 0 mm
21:29 3.8 °C 2.9 °C 1021.2 hPa North 6.4 km/h 2.1 km/h 94 % 0 mm
21:34 3.8 °C 2.9 °C 1021.2 hPa NNE 5.6 km/h 1.1 km/h 94 % 0 mm
21:39 3.7 °C 2.8 °C 1021.2 hPa North 5.6 km/h 3.1 km/h 94 % 0 mm
21:44 3.7 °C 2.8 °C 1021.6 hPa North 3.7 km/h 0.6 km/h 94 % 0 mm
21:49 3.7 °C 2.8 °C 1021.6 hPa North 3.7 km/h 0.5 km/h 94 % 0 mm
21:54 3.7 °C 2.8 °C 1021.2 hPa NNE 1.9 km/h 0.3 km/h 94 % 0 mm
21:59 3.7 °C 2.8 °C 1021.6 hPa North 3.7 km/h 1.6 km/h 94 % 0 mm
22:04 3.6 °C 2.7 °C 1021.6 hPa North 5.6 km/h 0.5 km/h 94 % 0 mm
22:09 3.6 °C 2.7 °C 1021.6 hPa Calm     94 % 0 mm
22:14 3.4 °C 2.6 °C 1021.6 hPa Calm     94 % 0 mm
22:19 3.3 °C 2.4 °C 1021.9 hPa Calm     94 % 0 mm
22:24 3.3 °C 2.4 °C 1021.9 hPa Calm   0.3 km/h 94 % 0 mm
22:29 3.3 °C 2.4 °C 1021.6 hPa North 1.9 km/h   94 % 0 mm
22:34 3.3 °C 2.4 °C 1021.6 hPa North 1.9 km/h 0.2 km/h 94 % 0 mm
22:39 3.3 °C 2.4 °C 1021.9 hPa Calm     94 % 0 mm
22:44 3.1 °C 2.2 °C 1021.9 hPa Calm     94 % 0 mm
22:49 3.1 °C 2.2 °C 1021.9 hPa Calm     94 % 0 mm
22:54 3.1 °C 2.2 °C 1021.6 hPa North 1.6 km/h   94 % 0 mm
22:59 3.1 °C 2.2 °C 1021.6 hPa North 5.6 km/h 0.8 km/h 94 % 0 mm
23:04 3.1 °C 2.2 °C 1021.6 hPa North 3.7 km/h 0.3 km/h 94 % 0 mm
23:09 3.1 °C 2.2 °C 1021.6 hPa North 5.6 km/h 1.6 km/h 94 % 0 mm
23:14 3 °C 2.1 °C 1021.2 hPa North 7.4 km/h 3.4 km/h 94 % 0 mm
23:19 2.9 °C 2.1 °C 1021.2 hPa North 5.6 km/h 2.6 km/h 94 % 0 mm
23:24 2.9 °C 2 °C 1021.2 hPa North 5.6 km/h 4.3 km/h 94 % 0 mm
23:29 2.8 °C 1.9 °C 1021.2 hPa North 5.6 km/h 0.5 km/h 94 % 0 mm
23:34 2.8 °C 1.9 °C 1021.6 hPa North 1.9 km/h   94 % 0 mm
23:39 2.7 °C 1.8 °C 1021.6 hPa NNE 1.9 km/h 0.8 km/h 94 % 0 mm
23:44 2.6 °C 1.7 °C 1021.6 hPa NNE 3.7 km/h 1.6 km/h 94 % 0 mm
23:49 2.4 °C 1.5 °C 1021.6 hPa North 3.7 km/h 1.4 km/h 94 % 0 mm
23:54 2.3 °C 1.4 °C 1021.6 hPa NNE 3.7 km/h 0.8 km/h 94 % 0 mm
23:59 2.3 °C 1.4 °C 1021.6 hPa Calm     94 % 0 mm
Ararat Weather
Compliments of Weather Underground - 2.25 mb
Click here to send mail.


ABOUT

Live weather data from Ararat, Victoria, Australia, 3377
Data uploaded from Cumulus every 5 minutes to Weather Underground.
This site then downloads the raw data for formatting and display.
Metric and imperial data can be displayed. Graphs and historical data available.
Includes Sun and Moon times and rain image live from BOM.

Check out Ararat Weather on Facebook, Twitter and Google +

Help support ongoing costs by checking out the ads





Follow @AraratWeather